createdAt,value
2022-07-30T00:00:39.198Z,5.30
2022-07-30T00:03:05.808Z,4.90
2022-07-30T00:05:32.587Z,5.37
2022-07-30T00:08:00.432Z,4.87
2022-07-30T00:10:27.788Z,5.15
2022-07-30T00:12:54.391Z,4.62
2022-07-30T00:15:20.987Z,4.78
2022-07-30T00:17:49.329Z,5.20
2022-07-30T00:20:16.059Z,4.80
2022-07-30T00:22:42.944Z,4.95
2022-07-30T00:25:09.680Z,5.32
2022-07-30T00:27:36.336Z,4.68
2022-07-30T00:30:03.953Z,4.93
2022-07-30T00:32:30.566Z,4.80
2022-07-30T00:34:57.163Z,5.03
2022-07-30T00:37:23.833Z,5.43
2022-07-30T00:39:50.460Z,4.90
2022-07-30T00:42:20.711Z,5.50
2022-07-30T00:44:47.355Z,4.82
2022-07-30T00:47:13.974Z,5.40
2022-07-30T00:49:44.383Z,5.43
2022-07-30T00:52:11.231Z,4.72
2022-07-30T00:54:38.143Z,5.43
2022-07-30T00:57:04.755Z,4.80
2022-07-30T00:59:32.280Z,5.10
2022-07-30T01:02:01.759Z,5.00
2022-07-30T01:04:28.998Z,5.07
2022-07-30T01:06:56.046Z,4.80
2022-07-30T01:09:24.088Z,4.82
2022-07-30T01:11:50.680Z,5.28
2022-07-30T01:14:17.551Z,4.40
2022-07-30T01:16:44.984Z,5.10
2022-07-30T01:19:41.649Z,4.57
2022-07-30T01:22:16.474Z,5.18
2022-07-30T01:24:44.932Z,4.30
2022-07-30T01:27:11.526Z,5.40
2022-07-30T01:29:38.717Z,5.47
2022-07-30T01:32:07.312Z,5.18
2022-07-30T01:34:34.376Z,5.22
2022-07-30T01:37:01.197Z,4.45
2022-07-30T01:39:27.965Z,4.45
2022-07-30T01:41:55.017Z,4.20
2022-07-30T01:44:23.885Z,4.87
2022-07-30T01:46:50.756Z,4.75
2022-07-30T01:49:19.805Z,4.12
2022-07-30T01:51:46.441Z,4.30
2022-07-30T01:54:13.063Z,4.57
2022-07-30T01:56:39.668Z,4.85
2022-07-30T01:59:06.242Z,4.67
2022-07-30T02:01:38.030Z,4.90
2022-07-30T02:04:04.790Z,5.32
2022-07-30T02:06:39.685Z,5.28
2022-07-30T02:09:06.989Z,4.75
2022-07-30T02:11:59.931Z,4.80
2022-07-30T02:15:14.332Z,4.65
2022-07-30T02:17:47.735Z,5.12
2022-07-30T02:20:14.595Z,4.80
2022-07-30T02:22:44.188Z,4.57
2022-07-30T02:25:10.772Z,5.00
2022-07-30T02:27:38.998Z,5.12
2022-07-30T02:30:05.917Z,5.28
2022-07-30T02:32:37.548Z,5.40
2022-07-30T02:35:14.610Z,4.97
2022-07-30T02:37:43.681Z,5.22
2022-07-30T02:40:13.880Z,4.93
2022-07-30T02:42:40.648Z,5.60
2022-07-30T02:45:07.517Z,5.10
2022-07-30T02:47:34.140Z,5.28
2022-07-30T02:50:02.357Z,4.97
2022-07-30T02:52:29.180Z,5.68
2022-07-30T02:54:56.415Z,5.20
2022-07-30T02:57:22.960Z,5.20
2022-07-30T02:59:49.558Z,5.80
2022-07-30T03:02:16.249Z,5.50
2022-07-30T03:04:43.357Z,5.03
2022-07-30T03:07:10.239Z,5.22
2022-07-30T03:09:52.121Z,5.07
2022-07-30T03:12:19.259Z,4.90
2022-07-30T03:14:45.846Z,4.90
2022-07-30T03:17:12.449Z,5.73
2022-07-30T03:19:39.272Z,5.20
2022-07-30T03:22:07.220Z,4.97
2022-07-30T03:24:33.788Z,5.05
2022-07-30T03:27:01.440Z,4.97
2022-07-30T03:29:28.597Z,4.80
2022-07-30T03:31:55.275Z,4.83
2022-07-30T03:34:22.139Z,5.30
2022-07-30T03:36:50.992Z,5.15
2022-07-30T03:39:17.680Z,4.93
2022-07-30T03:41:44.282Z,4.37
2022-07-30T03:44:10.868Z,4.53
2022-07-30T03:46:37.541Z,5.03
2022-07-30T03:49:05.969Z,4.68
2022-07-30T03:51:36.107Z,4.75
2022-07-30T03:54:03.235Z,4.82
2022-07-30T03:56:29.802Z,4.25
2022-07-30T03:58:56.367Z,4.83
2022-07-30T04:01:26.666Z,4.95
2022-07-30T04:03:53.406Z,4.82
2022-07-30T04:06:20.051Z,4.90
2022-07-30T04:08:46.620Z,5.23
2022-07-30T04:11:13.387Z,5.07
2022-07-30T04:13:40.062Z,4.60
2022-07-30T04:16:39.549Z,4.22
2022-07-30T04:19:10.674Z,4.50
2022-07-30T04:21:38.038Z,4.32
2022-07-30T04:24:05.570Z,4.90
2022-07-30T04:26:33.990Z,4.60
2022-07-30T04:29:00.778Z,4.57
2022-07-30T04:31:28.444Z,4.40
2022-07-30T04:33:55.097Z,4.78
2022-07-30T04:36:21.662Z,4.87
2022-07-30T04:38:48.223Z,5.07
2022-07-30T04:41:14.769Z,4.55
2022-07-30T04:43:41.198Z,4.77
2022-07-30T04:46:07.813Z,4.72
2022-07-30T04:48:34.406Z,4.67
2022-07-30T04:51:01.775Z,4.87
2022-07-30T04:53:28.983Z,4.80
2022-07-30T04:55:56.535Z,4.80
2022-07-30T04:58:23.648Z,4.50
2022-07-30T05:00:50.252Z,4.68
2022-07-30T05:03:16.893Z,5.00
2022-07-30T05:05:43.623Z,4.32
2022-07-30T05:08:10.244Z,4.80
2022-07-30T05:10:37.620Z,4.67
2022-07-30T05:15:36.208Z,4.20
2022-07-30T05:18:04.225Z,4.57
2022-07-30T05:20:30.937Z,4.20
2022-07-30T05:22:57.883Z,4.62
2022-07-30T05:25:24.443Z,4.00
2022-07-30T05:27:51.673Z,4.47
2022-07-30T05:30:18.266Z,4.72
2022-07-30T05:32:46.449Z,4.30
2022-07-30T05:35:13.644Z,4.40
2022-07-30T05:37:40.206Z,4.40
2022-07-30T05:40:07.142Z,4.50
2022-07-30T05:42:33.732Z,4.62
2022-07-30T05:45:00.495Z,4.90
2022-07-30T05:47:27.576Z,4.25
2022-07-30T05:49:54.157Z,4.25
2022-07-30T05:52:20.919Z,3.78
2022-07-30T05:54:47.550Z,3.80
2022-07-30T05:57:14.170Z,4.10
2022-07-30T05:59:40.757Z,4.10
2022-07-30T06:02:07.364Z,4.18
2022-07-30T06:04:35.596Z,3.78
2022-07-30T06:07:02.753Z,4.40
2022-07-30T06:09:36.668Z,4.20
2022-07-30T06:12:04.374Z,4.30
2022-07-30T06:14:32.175Z,3.75
2022-07-30T06:17:01.757Z,4.05
2022-07-30T06:19:28.609Z,4.28
2022-07-30T06:22:05.674Z,4.03
2022-07-30T06:24:33.583Z,4.37
2022-07-30T06:27:01.701Z,4.10
2022-07-30T06:29:28.613Z,4.30
2022-07-30T06:31:55.248Z,4.20
2022-07-30T06:34:21.853Z,4.00
2022-07-30T06:36:48.845Z,4.55
2022-07-30T06:39:15.493Z,4.22
2022-07-30T06:42:02.070Z,4.28
2022-07-30T06:44:28.662Z,4.75
2022-07-30T06:46:55.435Z,4.47
2022-07-30T06:49:22.886Z,4.07
2022-07-30T06:51:49.636Z,4.53
2022-07-30T06:54:16.253Z,4.40
2022-07-30T06:56:42.830Z,3.62
2022-07-30T06:59:11.274Z,3.65
2022-07-30T07:01:38.344Z,3.55
2022-07-30T07:04:05.156Z,3.50
2022-07-30T07:06:31.798Z,3.70
2022-07-30T07:08:58.487Z,3.37
2022-07-30T07:11:25.134Z,3.90
2022-07-30T07:13:51.718Z,3.78
2022-07-30T07:16:21.755Z,4.00
2022-07-30T07:18:48.663Z,3.47
2022-07-30T07:21:15.626Z,3.60
2022-07-30T07:23:42.558Z,3.45
2022-07-30T07:26:09.907Z,3.95
2022-07-30T07:28:36.628Z,3.87
2022-07-30T07:31:03.487Z,3.47
2022-07-30T07:33:30.226Z,3.70
2022-07-30T07:35:56.954Z,3.55
2022-07-30T07:38:23.530Z,3.67
2022-07-30T07:40:50.115Z,3.67
2022-07-30T07:43:16.717Z,3.40
2022-07-30T07:45:43.502Z,3.50
2022-07-30T07:48:10.156Z,3.60
2022-07-30T07:50:36.745Z,3.58
2022-07-30T07:53:03.653Z,3.72
2022-07-30T07:55:31.633Z,3.50
2022-07-30T07:57:59.658Z,3.75
2022-07-30T08:00:26.561Z,3.97
2022-07-30T08:02:53.225Z,3.08
2022-07-30T08:05:19.947Z,3.80
2022-07-30T08:07:46.717Z,4.55
2022-07-30T08:10:15.565Z,3.37
2022-07-30T08:12:42.399Z,3.55
2022-07-30T08:15:09.586Z,3.83
2022-07-30T08:20:10.100Z,3.47
2022-07-30T08:22:36.720Z,3.28
2022-07-30T08:25:04.166Z,3.47
2022-07-30T08:27:30.996Z,4.00
2022-07-30T08:29:57.955Z,3.20
2022-07-30T08:32:25.181Z,3.55
2022-07-30T08:34:52.215Z,3.67
2022-07-30T08:39:45.579Z,4.10
2022-07-30T08:42:13.353Z,4.28
2022-07-30T08:44:39.975Z,4.00
2022-07-30T08:47:06.649Z,3.75
2022-07-30T08:49:34.435Z,3.42
2022-07-30T08:52:01.432Z,3.80
2022-07-30T08:54:28.203Z,3.90
2022-07-30T08:56:55.173Z,3.95
2022-07-30T08:59:23.716Z,3.58
2022-07-30T09:01:52.098Z,4.05
2022-07-30T09:04:18.717Z,4.12
2022-07-30T09:06:45.996Z,3.83
2022-07-30T09:09:13.888Z,4.37
2022-07-30T09:11:40.966Z,4.57
2022-07-30T09:14:12.203Z,4.05
2022-07-30T09:16:39.006Z,4.32
2022-07-30T09:19:15.660Z,4.62
2022-07-30T09:21:42.586Z,4.28
2022-07-30T09:24:11.010Z,4.40
2022-07-30T09:27:05.384Z,4.25
2022-07-30T09:29:32.362Z,4.35
2022-07-30T09:32:02.928Z,4.03
2022-07-30T09:34:30.596Z,3.95
2022-07-30T09:37:00.140Z,4.47
2022-07-30T09:39:37.205Z,3.95
2022-07-30T09:42:05.452Z,4.57
2022-07-30T09:44:32.300Z,4.32
2022-07-30T09:46:58.918Z,5.10
2022-07-30T09:49:26.705Z,6.12
2022-07-30T09:54:51.134Z,7.15
2022-07-30T09:57:25.972Z,7.20
2022-07-30T09:59:54.051Z,7.32
2022-07-30T10:04:50.314Z,9.05
2022-07-30T10:07:25.488Z,9.65
2022-07-30T10:09:53.351Z,8.90
2022-07-30T10:14:47.230Z,10.50
2022-07-30T10:17:13.858Z,10.77
2022-07-30T10:22:09.131Z,12.98
2022-07-30T10:24:38.181Z,12.68
2022-07-30T10:27:06.311Z,13.37
2022-07-30T10:29:34.576Z,12.95
2022-07-30T10:32:01.535Z,13.57
2022-07-30T10:34:31.367Z,12.57
2022-07-30T10:37:04.784Z,12.30
2022-07-30T10:39:37.340Z,12.27
2022-07-30T10:42:30.166Z,13.05
2022-07-30T10:45:20.055Z,10.95
2022-07-30T10:47:49.051Z,12.65
2022-07-30T10:50:26.856Z,12.43
2022-07-30T10:52:55.980Z,11.98
2022-07-30T10:55:37.497Z,11.30
2022-07-30T10:58:06.575Z,12.77
2022-07-30T11:00:54.828Z,12.80
2022-07-30T11:03:40.249Z,12.90
2022-07-30T11:06:24.086Z,13.52
2022-07-30T11:08:57.238Z,12.88
2022-07-30T11:12:00.018Z,13.52
2022-07-30T11:14:11.191Z,13.65
2022-07-30T11:16:39.351Z,13.62
2022-07-30T11:19:55.275Z,12.55
2022-07-30T11:22:31.616Z,13.75
2022-07-30T11:24:59.794Z,13.90
2022-07-30T11:27:41.333Z,14.93
2022-07-30T11:30:17.895Z,12.88
2022-07-30T11:32:48.873Z,13.82
2022-07-30T11:35:34.888Z,13.10
2022-07-30T11:38:02.069Z,11.77
2022-07-30T11:40:36.645Z,11.20
2022-07-30T11:43:34.868Z,10.02
2022-07-30T11:46:16.508Z,9.20
2022-07-30T11:48:54.794Z,9.10
2022-07-30T11:51:21.563Z,9.18
2022-07-30T11:54:07.461Z,8.50
2022-07-30T11:56:34.078Z,6.90
2022-07-30T11:59:07.815Z,6.87
2022-07-30T12:01:35.195Z,6.78
2022-07-30T12:06:32.194Z,6.10
2022-07-30T12:08:58.989Z,4.95
2022-07-30T12:11:35.294Z,5.53
2022-07-30T12:14:02.213Z,6.20
2022-07-30T12:16:30.940Z,6.10
2022-07-30T12:19:04.517Z,5.12
2022-07-30T12:21:31.195Z,5.70
2022-07-30T12:24:02.120Z,5.82
2022-07-30T12:26:30.918Z,5.53
2022-07-30T12:29:01.795Z,6.07
2022-07-30T12:31:28.450Z,6.40
2022-07-30T12:33:58.369Z,5.57
2022-07-30T12:36:35.234Z,5.37
2022-07-30T12:39:02.733Z,5.62
2022-07-30T12:41:42.970Z,5.50
2022-07-30T12:44:10.061Z,5.03
2022-07-30T12:46:41.128Z,5.20
2022-07-30T12:49:17.486Z,3.80
2022-07-30T12:51:59.982Z,3.80
2022-07-30T12:54:27.471Z,3.78
2022-07-30T12:57:02.189Z,3.37
2022-07-30T12:59:29.678Z,2.90
2022-07-30T13:01:58.245Z,3.55
2022-07-30T13:04:25.232Z,3.30
2022-07-30T13:07:12.201Z,3.20
2022-07-30T13:09:40.040Z,2.70
2022-07-30T13:12:07.115Z,1.90
2022-07-30T13:14:33.791Z,1.60
2022-07-30T13:17:01.101Z,1.62
2022-07-30T13:19:28.214Z,1.40
2022-07-30T13:21:55.463Z,1.67
2022-07-30T13:26:50.540Z,1.60
2022-07-30T13:29:17.753Z,2.05
2022-07-30T13:31:44.435Z,1.80
2022-07-30T13:34:12.019Z,2.22
2022-07-30T13:36:38.788Z,1.90
2022-07-30T13:39:05.404Z,1.67
2022-07-30T13:41:33.259Z,2.12
2022-07-30T13:43:59.982Z,2.37
2022-07-30T13:46:26.777Z,1.58
2022-07-30T13:48:53.609Z,2.17
2022-07-30T13:51:20.748Z,2.25
2022-07-30T13:53:47.390Z,1.83
2022-07-30T13:56:14.034Z,1.83
2022-07-30T13:58:42.318Z,1.37
2022-07-30T14:01:09.901Z,1.92
2022-07-30T14:03:48.770Z,1.50
2022-07-30T14:06:16.971Z,1.40
2022-07-30T14:08:43.629Z,1.70
2022-07-30T14:11:10.221Z,2.08
2022-07-30T14:13:36.847Z,1.98
2022-07-30T14:16:03.913Z,1.60
2022-07-30T14:18:30.544Z,1.40
2022-07-30T14:20:57.179Z,1.40
2022-07-30T14:23:23.886Z,1.40
2022-07-30T14:25:51.558Z,1.20
2022-07-30T14:28:18.241Z,1.23
2022-07-30T14:30:44.860Z,0.93
2022-07-30T14:33:11.421Z,0.93
2022-07-30T14:35:38.200Z,1.30
2022-07-30T14:38:05.822Z,1.40
2022-07-30T14:40:32.412Z,1.30
2022-07-30T14:42:59.494Z,1.80
2022-07-30T14:45:26.083Z,1.40
2022-07-30T14:47:56.724Z,1.50
2022-07-30T14:50:24.618Z,1.48
2022-07-30T14:52:52.297Z,1.70
2022-07-30T14:55:19.068Z,1.67
2022-07-30T14:57:45.657Z,2.10
2022-07-30T15:00:12.554Z,1.75
2022-07-30T15:02:40.818Z,1.80
2022-07-30T15:05:08.372Z,1.90
2022-07-30T15:07:35.165Z,1.85
2022-07-30T15:10:07.306Z,2.40
2022-07-30T15:12:33.891Z,1.95
2022-07-30T15:15:00.646Z,1.65
2022-07-30T15:17:29.758Z,2.28
2022-07-30T15:19:56.392Z,1.90
2022-07-30T15:22:23.069Z,1.70
2022-07-30T15:24:49.709Z,2.45
2022-07-30T15:27:16.631Z,2.12
2022-07-30T15:29:43.229Z,1.80
2022-07-30T15:32:09.806Z,1.40
2022-07-30T15:34:37.042Z,1.65
2022-07-30T15:37:05.249Z,1.62
2022-07-30T15:39:33.021Z,1.60
2022-07-30T15:42:01.532Z,1.83
2022-07-30T15:44:28.446Z,1.85
2022-07-30T15:46:55.161Z,1.60
2022-07-30T15:49:21.808Z,1.42
2022-07-30T15:51:51.894Z,1.80
2022-07-30T15:54:23.273Z,1.50
2022-07-30T15:56:51.143Z,2.00
2022-07-30T15:59:18.300Z,1.85
2022-07-30T16:01:45.491Z,1.90
2022-07-30T16:04:19.726Z,1.75
2022-07-30T16:06:49.965Z,1.48
2022-07-30T16:09:16.816Z,1.90
2022-07-30T16:11:43.733Z,1.48
2022-07-30T16:14:10.659Z,2.05
2022-07-30T16:16:37.338Z,2.05
2022-07-30T16:19:04.424Z,1.70
2022-07-30T16:21:31.088Z,2.20
2022-07-30T16:24:02.431Z,2.67
2022-07-30T16:26:29.024Z,1.70
2022-07-30T16:28:55.656Z,2.10
2022-07-30T16:31:22.486Z,1.65
2022-07-30T16:33:49.627Z,1.90
2022-07-30T16:36:17.130Z,2.10
2022-07-30T16:38:44.844Z,2.15
2022-07-30T16:41:13.451Z,2.03
2022-07-30T16:43:40.516Z,2.10
2022-07-30T16:46:07.127Z,1.98
2022-07-30T16:48:33.743Z,1.80
2022-07-30T16:51:00.465Z,2.40
2022-07-30T16:53:27.821Z,1.95
2022-07-30T16:58:22.232Z,2.00
2022-07-30T17:00:57.313Z,1.70
2022-07-30T17:03:25.282Z,2.53
2022-07-30T17:05:53.581Z,2.10
2022-07-30T17:08:24.603Z,2.28
2022-07-30T17:10:52.431Z,2.70
2022-07-30T17:13:19.515Z,2.30
2022-07-30T17:15:46.803Z,3.58
2022-07-30T17:18:13.768Z,2.45
2022-07-30T17:20:40.682Z,2.40
2022-07-30T17:23:10.475Z,1.92
2022-07-30T17:25:37.314Z,2.00
2022-07-30T17:28:04.168Z,1.85
2022-07-30T17:30:30.807Z,2.30
2022-07-30T17:32:57.858Z,2.20
2022-07-30T17:35:44.631Z,2.47
2022-07-30T17:38:13.838Z,2.95
2022-07-30T17:40:40.469Z,2.87
2022-07-30T17:43:07.832Z,2.50
2022-07-30T17:45:35.492Z,2.72
2022-07-30T17:48:02.407Z,2.30
2022-07-30T17:50:30.022Z,2.67
2022-07-30T17:52:56.653Z,2.30
2022-07-30T17:55:23.388Z,3.08
2022-07-30T17:57:49.988Z,2.92
2022-07-30T18:00:17.721Z,2.40
2022-07-30T18:02:44.304Z,3.00
2022-07-30T18:05:11.169Z,2.87
2022-07-30T18:07:37.821Z,3.05
2022-07-30T18:10:04.724Z,2.62
2022-07-30T18:12:31.454Z,3.00
2022-07-30T18:15:01.063Z,3.42
2022-07-30T18:17:27.807Z,2.65
2022-07-30T18:19:54.527Z,3.28
2022-07-30T18:22:29.424Z,4.30
2022-07-30T18:24:57.001Z,4.00
2022-07-30T18:27:23.696Z,2.95
2022-07-30T18:29:50.344Z,3.53
2022-07-30T18:32:16.970Z,3.05
2022-07-30T18:34:43.632Z,3.40
2022-07-30T18:37:10.687Z,4.28
2022-07-30T18:39:37.330Z,3.15
2022-07-30T18:42:04.363Z,2.97
2022-07-30T18:44:31.411Z,3.55
2022-07-30T18:46:58.055Z,3.00
2022-07-30T18:49:50.302Z,3.50
2022-07-30T18:52:18.414Z,3.12
2022-07-30T18:54:45.122Z,3.03
2022-07-30T18:57:14.520Z,2.85
2022-07-30T18:59:41.516Z,3.12
2022-07-30T19:02:09.447Z,3.00
2022-07-30T19:04:36.166Z,3.30
2022-07-30T19:07:02.845Z,3.62
2022-07-30T19:09:29.744Z,4.03
2022-07-30T19:11:56.446Z,3.30
2022-07-30T19:14:23.080Z,4.22
2022-07-30T19:16:50.088Z,4.55
2022-07-30T19:19:54.892Z,3.30
2022-07-30T19:22:30.033Z,3.62
2022-07-30T19:24:58.402Z,3.45
2022-07-30T19:27:25.002Z,4.10
2022-07-30T19:29:51.658Z,4.13
2022-07-30T19:32:18.342Z,3.83
2022-07-30T19:34:45.039Z,4.40
2022-07-30T19:37:11.777Z,4.53
2022-07-30T19:39:38.361Z,3.85
2022-07-30T19:42:26.173Z,3.55
2022-07-30T19:44:54.051Z,3.97
2022-07-30T19:47:26.156Z,4.62
2022-07-30T19:49:53.800Z,4.00
2022-07-30T19:52:23.318Z,3.78
2022-07-30T19:55:17.042Z,4.57
2022-07-30T19:57:55.911Z,4.25
2022-07-30T20:00:25.131Z,5.03
2022-07-30T20:02:52.324Z,4.37
2022-07-30T20:07:47.107Z,4.53
2022-07-30T20:10:15.751Z,4.82
2022-07-30T20:12:42.465Z,5.10
2022-07-30T20:15:15.926Z,4.60
2022-07-30T20:17:43.037Z,4.10
2022-07-30T20:20:10.250Z,4.37
2022-07-30T20:22:36.911Z,3.92
2022-07-30T20:27:35.932Z,4.47
2022-07-30T20:30:04.445Z,4.80
2022-07-30T20:32:31.175Z,4.60
2022-07-30T20:34:58.338Z,4.87
2022-07-30T20:37:27.375Z,5.07
2022-07-30T20:39:55.761Z,4.80
2022-07-30T20:42:23.848Z,5.00
2022-07-30T20:44:53.255Z,5.12
2022-07-30T20:47:34.699Z,4.85
2022-07-30T20:50:09.921Z,6.12
2022-07-30T20:52:39.259Z,5.87
2022-07-30T20:55:09.795Z,4.90
2022-07-30T20:57:55.869Z,4.95
2022-07-30T21:00:26.382Z,5.65
2022-07-30T21:02:53.015Z,5.47
2022-07-30T21:05:20.105Z,5.43
2022-07-30T21:07:46.906Z,5.03
2022-07-30T21:10:14.604Z,5.97
2022-07-30T21:12:41.427Z,5.40
2022-07-30T21:15:23.179Z,5.43
2022-07-30T21:17:50.990Z,5.43
2022-07-30T21:20:27.863Z,5.33
2022-07-30T21:22:55.819Z,5.60
2022-07-30T21:25:23.453Z,5.87
2022-07-30T21:27:58.952Z,5.70
2022-07-30T21:32:57.231Z,5.25
2022-07-30T21:35:24.130Z,5.40
2022-07-30T21:37:52.019Z,5.65
2022-07-30T21:40:19.105Z,5.73
2022-07-30T21:42:51.527Z,5.32
2022-07-30T21:45:19.620Z,4.93
2022-07-30T21:47:47.536Z,5.20
2022-07-30T21:50:16.274Z,4.93
2022-07-30T21:52:43.867Z,5.18
2022-07-30T21:55:13.302Z,5.30
2022-07-30T21:57:40.550Z,5.22
2022-07-30T22:00:14.868Z,5.10
2022-07-30T22:02:52.749Z,6.22
2022-07-30T22:07:46.855Z,5.18
2022-07-30T22:10:15.357Z,5.82
2022-07-30T22:12:48.574Z,5.70
2022-07-30T22:15:15.320Z,5.47
2022-07-30T22:18:00.465Z,5.85
2022-07-30T22:20:28.188Z,5.45
2022-07-30T22:22:55.537Z,6.30
2022-07-30T22:25:22.459Z,5.50
2022-07-30T22:27:56.105Z,6.00
2022-07-30T22:30:23.387Z,6.40
2022-07-30T22:32:50.020Z,5.90
2022-07-30T22:35:16.633Z,6.13
2022-07-30T22:37:44.482Z,5.27
2022-07-30T22:40:15.219Z,6.07
2022-07-30T22:42:49.781Z,6.53
2022-07-30T22:45:16.732Z,5.57
2022-07-30T22:48:09.941Z,6.00
2022-07-30T22:50:39.966Z,6.28
2022-07-30T22:53:23.672Z,6.57
2022-07-30T22:55:53.870Z,5.87
2022-07-30T22:58:21.961Z,5.32
2022-07-30T23:00:53.040Z,5.93
2022-07-30T23:03:19.646Z,5.80
2022-07-30T23:05:55.290Z,5.60
2022-07-30T23:08:30.312Z,5.03
2022-07-30T23:10:59.410Z,5.45
2022-07-30T23:13:27.150Z,5.62
2022-07-30T23:15:53.756Z,5.35
2022-07-30T23:18:20.326Z,4.97
2022-07-30T23:20:46.980Z,5.85
2022-07-30T23:23:13.568Z,4.77
2022-07-30T23:25:40.621Z,5.22
2022-07-30T23:28:07.228Z,4.72
2022-07-30T23:30:34.420Z,5.10
2022-07-30T23:33:01.315Z,4.93
2022-07-30T23:35:28.043Z,4.78
2022-07-30T23:37:54.636Z,5.00
2022-07-30T23:40:21.228Z,4.60
2022-07-30T23:42:50.012Z,5.07
2022-07-30T23:45:17.315Z,4.72
2022-07-30T23:48:01.023Z,5.10
2022-07-30T23:50:30.633Z,4.93
2022-07-30T23:52:57.186Z,4.55
2022-07-30T23:55:23.898Z,5.57
2022-07-30T23:57:50.735Z,5.27
